New Orleans, LA (70129)

12:48 PM CDT on July 24, 2016 (GMT -0500)
Lakefront | | Change Station

Elev 10 ft 30.05 °N, 90.03 °W | Updated 55 minutes ago

Clear
Clear
87 °F
Feels Like 100 °F
N
10
Wind Variable Wind from ENE

Today
High -- | Low -- °F
--% Chance of Precip.
Yesterday
High -- | Low -- °F
Precip. -- in
Pressure 30.00 in
Visibility 10.0 miles
Clouds Clear
Heat Index 100 °F
Dew Point 78 °F
Humidity 74%
Rainfall 0.00 in
Snow Depth Not available.
6:14 AM 7:57 PM
Waning Gibbous, 74% visible
METAR KNEW 241653Z 06009KT 10SM CLR 31/26 A3001 RMK AO2 LTG DSNT ALQDS SLP157 T03060256
Pressure 30.00 in
Visibility 10.0 miles
Clouds Clear
Heat Index 100 °F
Dew Point 78 °F
Humidity 74%
Rainfall 0.00 in
Snow Depth Not available.
6:14 AM 7:57 PM
Waning Gibbous, 74% visible
METAR KNEW 241653Z 06009KT 10SM CLR 31/26 A3001 RMK AO2 LTG DSNT ALQDS SLP157 T03060256

10-Day Weather Forecast

Almanac

Astronomy

Jul. 24, 2016 Rise Set
Actual Time
Civil Twilight
Nautical Twilight
Astronomical Twilight
Moon
Length of Visible Light
Length of Day
Tomorrow will be .
, % of the Moon is Illuminated

Today's Extremes

State Highs State Lows

Community

WunderPhotos

Upload Photos

1,927,134 photos uploaded!

WunderBlog® & News

Nearby

Air Quality

  Air Quality AQ Index Pollutant
Not available.

Snow Depth

Station Depth Elevation

Earthquake Activity

City Distance Mag. Time & Date
Minimum magnitude displayed is 2.5.

Coastal Water Temperatures

Place Temperature

Stations

Nearby Weather Stations

Station Location Temp. Windchill Dew Point Humidity Wind Precip. Elev Updated Type
                   

Watches & Warnings

There are currently no watches in effect.